Time;durP1;ratioP1;P1;durP2;ratioP2;P2;SDS_P1;SDS_P2;PMS_P1;PMS_P2;Temp;Humidity;BMP_temperature;BMP_pressure;BME280_temperature;BME280_humidity;BME280_pressure;Samples;Min_cycle;Max_cycle;Signal;HPM_P1;HPM_P2
2023/11/05 00:00:20;;;;;;;46.90;24.70;;;;;;;1.71;99.99;96541.70;272987;1275;23854;-83
2023/11/05 00:06:51;;;;;;;48.80;25.30;;;;;;;1.61;100.00;96540.40;273183;1279;22202;-83
2023/11/05 00:13:32;;;;;;;49.90;25.60;;;;;;;1.56;100.00;96542.38;273081;1278;22295;-84
2023/11/05 00:28:17;;;;;;;37.60;21.50;;;;;;;1.62;100.00;96533.87;273160;1268;22225;-84
2023/11/05 00:34:46;;;;;;;42.20;21.80;;;;;;;1.62;100.00;96534.40;273054;1279;22311;-84
2023/11/05 00:41:04;;;;;;;47.60;25.60;;;;;;;1.56;100.00;96529.73;273081;1272;23000;-84
2023/11/05 00:47:06;;;;;;;40.70;20.90;;;;;;;1.54;100.00;96522.10;271962;1272;22330;-84
2023/11/05 01:00:54;;;;;;;37.70;20.20;;;;;;;1.55;100.00;96508.95;272938;1272;22375;-84
2023/11/05 01:15:24;;;;;;;53.90;26.60;;;;;;;1.74;100.00;96477.45;273084;1272;22320;-83
2023/11/05 01:22:23;;;;;;;45.60;22.50;;;;;;;1.86;100.00;96457.92;272942;1273;22216;-84
2023/11/05 01:30:02;;;;;;;37.60;21.20;;;;;;;1.97;100.00;96450.89;272673;1271;22206;-84
2023/11/05 01:36:35;;;;;;;40.10;20.30;;;;;;;2.13;100.00;96447.16;273113;1272;22202;-84
2023/11/05 01:42:37;;;;;;;39.90;21.10;;;;;;;2.28;100.00;96447.74;272840;1272;22390;-84
2023/11/05 01:49:05;;;;;;;46.40;23.50;;;;;;;2.41;100.00;96430.35;273064;1272;22183;-83
2023/11/05 01:55:57;;;;;;;37.90;20.30;;;;;;;2.52;100.00;96421.34;271489;1260;22672;-83
2023/11/05 02:02:19;;;;;;;34.20;19.20;;;;;;;2.59;100.00;96428.83;271608;1272;23143;-84
2023/11/05 02:08:51;;;;;;;38.10;21.30;;;;;;;2.67;100.00;96424.90;272177;1272;22271;-84
2023/11/05 02:15:45;;;;;;;44.20;24.10;;;;;;;2.74;100.00;96421.81;272074;1272;22246;-84
2023/11/05 02:37:24;;;;;;;29.00;15.70;;;;;;;3.10;100.00;96421.66;256008;1275;22667;-85
2023/11/05 02:43:26;;;;;;;28.50;15.30;;;;;;;3.24;100.00;96422.27;271711;1274;22289;-85
2023/11/05 02:49:27;;;;;;;34.80;17.00;;;;;;;3.35;100.00;96415.67;272277;1273;23470;-85
2023/11/05 02:55:29;;;;;;;26.30;14.70;;;;;;;3.45;100.00;96427.25;272336;1273;23414;-85
2023/11/05 03:01:34;;;;;;;30.20;16.20;;;;;;;3.53;100.00;96430.63;272325;1274;23254;-86
2023/11/05 03:07:36;;;;;;;21.90;13.40;;;;;;;3.65;100.00;96416.21;272254;1274;23676;-85
2023/11/05 03:13:38;;;;;;;24.60;14.30;;;;;;;3.83;100.00;96418.30;272341;1274;23789;-86
2023/11/05 03:19:39;;;;;;;22.80;13.40;;;;;;;3.95;100.00;96408.84;272206;1273;22505;-86
2023/11/05 03:25:42;;;;;;;21.90;12.50;;;;;;;4.04;100.00;96388.75;272096;1265;23021;-86
2023/11/05 03:31:44;;;;;;;21.30;11.50;;;;;;;4.14;100.00;96368.35;272205;1274;22468;-86
2023/11/05 03:37:46;;;;;;;19.30;12.40;;;;;;;4.24;100.00;96360.95;272265;1274;22472;-86
2023/11/05 03:43:47;;;;;;;18.20;11.30;;;;;;;4.26;100.00;96366.20;272247;1273;22216;-86
2023/11/05 03:49:49;;;;;;;18.60;11.70;;;;;;;4.29;100.00;96355.34;272311;1273;22251;-85
2023/11/05 03:55:50;;;;;;;16.50;9.60;;;;;;;4.35;100.00;96345.56;272290;1273;22438;-85
2023/11/05 04:01:52;;;;;;;16.80;9.60;;;;;;;4.37;100.00;96360.71;272302;1274;22270;-84
2023/11/05 04:07:55;;;;;;;14.40;8.80;;;;;;;4.35;100.00;96360.64;272278;1273;22204;-85
2023/11/05 04:13:57;;;;;;;15.20;9.00;;;;;;;4.30;100.00;96354.25;272304;1273;22198;-85
2023/11/05 04:19:58;;;;;;;16.40;8.80;;;;;;;4.29;100.00;96374.37;272347;1274;22220;-85
2023/11/05 04:26:00;;;;;;;14.50;9.20;;;;;;;4.28;100.00;96381.13;272251;1274;22518;-85
2023/11/05 04:32:02;;;;;;;13.00;7.90;;;;;;;4.25;100.00;96382.55;272285;1273;22529;-86
2023/11/05 04:38:03;;;;;;;13.80;8.40;;;;;;;4.26;100.00;96372.86;272268;1273;22847;-86
2023/11/05 04:44:05;;;;;;;10.30;6.70;;;;;;;4.26;100.00;96341.52;272336;1273;22345;-85
2023/11/05 04:50:08;;;;;;;11.50;7.30;;;;;;;4.19;100.00;96358.89;272639;1274;22189;-85
2023/11/05 04:56:17;;;;;;;11.80;6.80;;;;;;;4.19;100.00;96370.25;272822;1281;22166;-85
2023/11/05 05:02:39;;;;;;;14.80;6.80;;;;;;;4.26;100.00;96372.85;272482;1274;22242;-85
2023/11/05 05:08:41;;;;;;;13.10;7.60;;;;;;;4.27;100.00;96357.98;272607;1273;22285;-86
2023/11/05 05:14:52;;;;;;;12.70;7.90;;;;;;;4.26;100.00;96349.80;272379;1274;22394;-85
2023/11/05 05:20:54;;;;;;;12.40;7.20;;;;;;;4.29;100.00;96344.60;272696;1276;22243;-85
2023/11/05 05:26:57;;;;;;;12.00;6.80;;;;;;;4.27;100.00;96327.97;272318;1274;22470;-85
2023/11/05 05:32:59;;;;;;;10.40;7.40;;;;;;;4.27;100.00;96323.65;272838;1275;22174;-85
2023/11/05 05:39:03;;;;;;;11.60;7.30;;;;;;;4.32;100.00;96329.17;272341;1274;22789;-86
2023/11/05 05:45:05;;;;;;;8.10;5.90;;;;;;;4.39;100.00;96342.90;272248;1270;22352;-85
2023/11/05 05:51:12;;;;;;;10.20;5.40;;;;;;;4.47;100.00;96347.09;270326;1274;23134;-85
2023/11/05 05:57:13;;;;;;;13.40;6.30;;;;;;;4.44;100.00;96342.78;270284;1274;22552;-85
2023/11/05 06:03:15;;;;;;;8.30;5.10;;;;;;;4.45;100.00;96326.52;269968;1274;22438;-86
2023/11/05 06:09:22;;;;;;;7.00;3.90;;;;;;;4.50;100.00;96317.42;272199;1274;23358;-86
2023/11/05 06:15:24;;;;;;;7.10;4.50;;;;;;;4.59;100.00;96314.64;272215;1274;23030;-85
2023/11/05 06:21:26;;;;;;;5.30;3.80;;;;;;;4.75;100.00;96316.67;272215;1274;22301;-86
2023/11/05 06:27:27;;;;;;;5.00;3.20;;;;;;;4.98;100.00;96315.07;271197;1274;22923;-85
2023/11/05 06:33:33;;;;;;;3.90;2.90;;;;;;;5.20;100.00;96313.06;271147;1268;22871;-85
2023/11/05 06:39:36;;;;;;;3.70;2.50;;;;;;;5.41;100.00;96309.80;272144;1273;22645;-85
2023/11/05 06:45:38;;;;;;;5.80;2.50;;;;;;;5.63;100.00;96308.36;269824;1273;22553;-85
2023/11/05 06:51:40;;;;;;;3.50;2.10;;;;;;;5.85;100.00;96299.25;271111;1273;22207;-86
2023/11/05 06:57:41;;;;;;;5.20;2.00;;;;;;;6.05;100.00;96292.31;270466;1273;22200;-85
2023/11/05 07:03:43;;;;;;;4.00;2.30;;;;;;;6.18;100.00;96286.84;270046;1273;22202;-85
2023/11/05 07:09:47;;;;;;;6.70;4.10;;;;;;;6.28;100.00;96282.42;272396;1273;22186;-85
2023/11/05 07:15:49;;;;;;;6.40;3.50;;;;;;;6.37;100.00;96274.98;272426;1273;22284;-86
2023/11/05 07:21:53;;;;;;;8.60;4.00;;;;;;;6.49;100.00;96268.20;272340;1273;23281;-86
2023/11/05 07:27:55;;;;;;;9.60;6.20;;;;;;;6.59;100.00;96271.30;272367;1273;22209;-86
2023/11/05 07:33:57;;;;;;;9.50;5.70;;;;;;;6.67;100.00;96264.95;272315;1273;23519;-86
2023/11/05 07:39:59;;;;;;;7.70;4.40;;;;;;;6.78;100.00;96265.93;272439;1273;23404;-86
2023/11/05 07:46:01;;;;;;;7.50;3.90;;;;;;;6.91;100.00;96276.73;272859;1274;23046;-86
2023/11/05 07:52:03;;;;;;;9.00;4.20;;;;;;;7.07;100.00;96295.00;272628;1273;22763;-86
2023/11/05 09:11:33;;;;;;;8.00;4.20;;;;;;;7.88;100.00;96273.93;263082;1305;545563;-84
2023/11/05 09:17:35;;;;;;;8.30;4.80;;;;;;;7.94;100.00;96280.72;269399;1269;22385;-83
2023/11/05 09:23:37;;;;;;;10.00;5.70;;;;;;;8.04;100.00;96274.44;266283;1279;5374292;-84
2023/11/05 09:29:39;;;;;;;6.10;3.80;;;;;;;8.11;100.00;96260.67;270433;1277;22533;-82
2023/11/05 09:36:04;;;;;;;5.80;3.20;;;;;;;8.14;100.00;96246.96;272170;1276;23044;-83
2023/11/05 09:42:08;;;;;;;9.70;4.00;;;;;;;8.17;100.00;96227.04;268957;1279;22969;-84
2023/11/05 09:48:13;;;;;;;10.00;5.70;;;;;;;8.20;100.00;96209.29;269777;1279;22534;-84
2023/11/05 09:54:15;;;;;;;7.30;4.90;;;;;;;8.26;100.00;96193.67;271231;1276;23385;-83
2023/11/05 10:00:18;;;;;;;7.80;4.40;;;;;;;8.32;100.00;96186.61;270834;1277;22582;-83
2023/11/05 10:06:20;;;;;;;10.90;6.80;;;;;;;8.37;100.00;96159.86;269425;1279;22614;-82
2023/11/05 10:12:21;;;;;;;10.30;6.50;;;;;;;8.39;100.00;96137.75;268395;1279;22576;-82
2023/11/05 10:18:23;;;;;;;8.20;5.40;;;;;;;8.41;100.00;96132.87;270295;1278;22207;-84
2023/11/05 10:24:39;;;;;;;8.70;5.50;;;;;;;8.43;100.00;96143.12;272213;1279;22204;-83
2023/11/05 10:30:45;;;;;;;8.30;5.30;;;;;;;8.48;100.00;96140.80;271903;1276;22401;-83
2023/11/05 10:36:48;;;;;;;10.20;6.90;;;;;;;8.49;100.00;96126.21;267900;1278;23363;-82
2023/11/05 10:43:05;;;;;;;12.40;6.70;;;;;;;8.50;100.00;96124.77;269531;1273;22937;-85
2023/11/05 10:49:07;;;;;;;11.00;6.20;;;;;;;8.49;100.00;96128.94;272272;1278;22182;-83
2023/11/05 10:55:10;;;;;;;10.10;5.00;;;;;;;8.50;100.00;96108.04;272178;1270;22472;-83
2023/11/05 11:01:14;;;;;;;10.60;4.20;;;;;;;8.50;100.00;96067.54;272518;1279;22202;-83
2023/11/05 11:07:17;;;;;;;10.10;4.70;;;;;;;8.51;100.00;96032.75;273093;1267;22411;-83
2023/11/05 11:13:29;;;;;;;9.20;4.40;;;;;;;8.56;100.00;96006.51;272491;1267;22514;-84
2023/11/05 11:19:31;;;;;;;10.60;4.40;;;;;;;8.65;100.00;96020.27;273912;1266;22382;-83
2023/11/05 11:25:33;;;;;;;5.40;3.60;;;;;;;8.70;100.00;96038.27;274026;1267;22198;-83
2023/11/05 11:31:39;;;;;;;7.00;3.90;;;;;;;8.71;100.00;96102.38;273514;1269;23027;-82
2023/11/05 11:37:41;;;;;;;9.50;4.80;;;;;;;8.68;100.00;96113.39;271531;1267;23059;-83
2023/11/05 11:43:44;;;;;;;9.20;4.80;;;;;;;8.68;100.00;96103.95;273121;1263;23698;-83
2023/11/05 11:49:45;;;;;;;7.60;4.20;;;;;;;8.70;100.00;96083.65;272333;1267;22474;-84
2023/11/05 11:55:50;;;;;;;8.90;4.50;;;;;;;8.72;100.00;96104.54;266412;1269;10001732;-85
2023/11/05 12:01:52;;;;;;;7.70;4.80;;;;;;;8.71;100.00;96116.34;272825;1267;22471;-84
2023/11/05 12:07:54;;;;;;;8.40;4.60;;;;;;;8.73;100.00;96110.66;273970;1268;22195;-84
2023/11/05 12:13:56;;;;;;;7.50;5.20;;;;;;;8.76;100.00;96105.60;273407;1267;22411;-83
2023/11/05 12:19:59;;;;;;;6.50;5.20;;;;;;;8.79;100.00;96093.91;271410;1266;23010;-84
2023/11/05 12:26:03;;;;;;;8.40;4.50;;;;;;;8.82;100.00;96099.06;272169;1267;22706;-84
2023/11/05 12:32:07;;;;;;;8.00;5.20;;;;;;;8.83;100.00;96134.40;270786;1267;23325;-84
2023/11/05 12:38:09;;;;;;;8.80;5.80;;;;;;;8.83;100.00;96157.78;270807;1267;23208;-85
2023/11/05 12:44:10;;;;;;;9.10;6.60;;;;;;;8.85;100.00;96151.17;272936;1267;23875;-82
2023/11/05 12:50:32;;;;;;;9.80;6.20;;;;;;;8.87;100.00;96140.52;270618;1267;22693;-83
2023/11/05 12:56:35;;;;;;;10.00;6.40;;;;;;;8.92;100.00;96129.00;271391;1267;22438;-83
2023/11/05 13:02:43;;;;;;;10.80;7.20;;;;;;;8.97;100.00;96123.55;274247;1269;22183;-83
2023/11/05 13:08:45;;;;;;;12.10;8.00;;;;;;;8.97;100.00;96137.75;273819;1267;22212;-83
2023/11/05 13:14:47;;;;;;;10.90;6.80;;;;;;;8.93;100.00;96148.60;273823;1267;22398;-83
2023/11/05 13:20:50;;;;;;;9.80;7.10;;;;;;;8.91;100.00;96153.17;273947;1267;22954;-82
2023/11/05 13:26:52;;;;;;;8.70;6.90;;;;;;;8.97;100.00;96152.48;273732;1267;22440;-82
2023/11/05 13:32:54;;;;;;;9.70;7.40;;;;;;;9.05;100.00;96151.70;273848;1267;22210;-83
2023/11/05 13:38:56;;;;;;;12.40;8.70;;;;;;;9.10;100.00;96147.98;273832;1267;22385;-82
2023/11/05 13:44:58;;;;;;;14.10;8.50;;;;;;;9.10;100.00;96136.98;273845;1267;22384;-82
2023/11/05 13:51:00;;;;;;;14.00;9.50;;;;;;;9.10;100.00;96140.96;273891;1267;22210;-82
2023/11/05 13:57:03;;;;;;;12.70;8.70;;;;;;;9.13;100.00;96142.81;273942;1267;22459;-82
2023/11/05 14:03:07;;;;;;;14.50;8.10;;;;;;;9.20;100.00;96137.56;273839;1267;22899;-81
2023/11/05 14:09:10;;;;;;;19.80;12.60;;;;;;;9.22;100.00;96146.39;273799;1266;22454;-82
2023/11/05 14:15:14;;;;;;;13.20;7.80;;;;;;;9.24;100.00;96146.79;273877;1267;22339;-82
2023/11/05 14:21:16;;;;;;;9.10;5.60;;;;;;;9.27;100.00;96138.59;273885;1267;22253;-82
2023/11/05 14:27:20;;;;;;;7.50;4.90;;;;;;;9.30;100.00;96139.67;273890;1266;22278;-82
2023/11/05 14:33:21;;;;;;;7.50;4.30;;;;;;;9.29;100.00;96143.52;273880;1267;23198;-82
2023/11/05 14:39:23;;;;;;;7.50;4.70;;;;;;;9.24;100.00;96151.30;273854;1267;22564;-82
2023/11/05 14:45:25;;;;;;;7.30;4.20;;;;;;;9.11;100.00;96157.45;274066;1268;22970;-81
2023/11/05 14:51:28;;;;;;;8.40;5.00;;;;;;;8.98;100.00;96165.68;273803;1269;22387;-82
2023/11/05 14:57:30;;;;;;;7.70;4.60;;;;;;;8.86;100.00;96177.18;273746;1267;22414;-82
2023/11/05 15:03:32;;;;;;;6.70;5.00;;;;;;;8.71;100.00;96188.34;273812;1267;22453;-82
2023/11/05 15:10:00;;;;;;;14.30;6.30;;;;;;;8.53;100.00;96200.19;273859;1267;22426;-82
2023/11/05 15:16:03;;;;;;;11.70;7.20;;;;;;;8.38;100.00;96208.34;273804;1267;22370;-82
2023/11/05 15:22:09;;;;;;;7.90;5.50;;;;;;;8.20;100.00;96214.13;273880;1263;22218;-82
2023/11/05 15:28:32;;;;;;;;;;;;;;;8.01;100.00;96226.47;273903;1267;23262;-82
2023/11/05 15:34:34;;;;;;;9.80;6.10;;;;;;;7.80;100.00;96239.25;273872;1267;22197;-83
2023/11/05 15:40:36;;;;;;;12.90;8.00;;;;;;;7.60;100.00;96248.16;273620;1267;22209;-82
2023/11/05 15:46:38;;;;;;;29.60;18.80;;;;;;;7.48;100.00;96251.90;273906;1263;22407;-83
2023/11/05 15:53:00;;;;;;;23.80;13.80;;;;;;;7.42;100.00;96255.52;273928;1267;22314;-83
2023/11/05 15:59:03;;;;;;;20.80;11.20;;;;;;;7.33;100.00;96265.05;273875;1267;22183;-83
2023/11/05 16:05:05;;;;;;;14.60;9.90;;;;;;;7.26;100.00;96273.49;274147;1269;22228;-84
2023/11/05 16:11:07;;;;;;;19.10;11.70;;;;;;;7.16;100.00;96280.38;273847;1266;22395;-83
2023/11/05 16:17:09;;;;;;;17.70;11.60;;;;;;;7.10;100.00;96284.09;273707;1259;23241;-83
2023/11/05 16:23:10;;;;;;;19.50;11.40;;;;;;;7.08;100.00;96296.30;273845;1266;22377;-83
2023/11/05 16:29:12;;;;;;;16.80;11.70;;;;;;;7.02;100.00;96300.23;273795;1267;22333;-82
2023/11/05 16:35:15;;;;;;;19.90;12.80;;;;;;;6.93;100.00;96305.59;273864;1267;22908;-83
2023/11/05 16:41:17;;;;;;;22.50;15.70;;;;;;;6.86;100.00;96317.29;273895;1263;22355;-83
2023/11/05 16:47:19;;;;;;;14.70;9.70;;;;;;;6.81;100.00;96319.48;273875;1267;22340;-86
2023/11/05 16:53:28;;;;;;;20.70;14.50;;;;;;;6.75;100.00;96326.33;273833;1267;23335;-84
2023/11/05 16:59:38;;;;;;;23.00;14.10;;;;;;;6.68;100.00;96335.30;273977;1269;23283;-82
2023/11/05 17:05:40;;;;;;;20.20;13.60;;;;;;;6.59;100.00;96342.43;274092;1267;22238;-82
2023/11/05 17:11:43;;;;;;;22.30;11.90;;;;;;;6.55;100.00;96336.36;273859;1267;22517;-83
2023/11/05 17:17:47;;;;;;;19.60;12.30;;;;;;;6.55;100.00;96346.98;274238;1268;22181;-82
2023/11/05 17:23:49;;;;;;;18.90;11.40;;;;;;;6.57;100.00;96367.16;273827;1269;22412;-83
2023/11/05 17:30:11;;;;;;;30.40;17.00;;;;;;;6.72;100.00;96377.26;272783;1269;22215;-83
2023/11/05 17:36:13;;;;;;;37.50;20.70;;;;;;;6.82;100.00;96402.83;273991;1269;22239;-84
2023/11/05 17:42:34;;;;;;;23.80;14.60;;;;;;;6.84;100.00;96417.85;273974;1268;22208;-83
2023/11/05 17:49:13;;;;;;;22.90;13.20;;;;;;;6.90;100.00;96423.81;273673;1267;22389;-83
2023/11/05 17:55:15;;;;;;;20.10;14.10;;;;;;;6.90;100.00;96423.52;273859;1269;22613;-84
2023/11/05 18:01:17;;;;;;;21.90;13.40;;;;;;;6.88;100.00;96420.05;273925;1267;23253;-83
2023/11/05 18:07:23;;;;;;;20.30;12.50;;;;;;;6.86;100.00;96417.66;273922;1267;22385;-83
2023/11/05 18:13:26;;;;;;;17.90;11.70;;;;;;;6.78;100.00;96415.14;273530;1267;23298;-84
2023/11/05 18:19:28;;;;;;;14.70;6.50;;;;;;;6.72;100.00;96412.74;274065;1267;23135;-84
2023/11/05 18:25:30;;;;;;;11.50;5.30;;;;;;;6.88;100.00;96412.12;273936;1267;22723;-87
2023/11/05 18:31:32;;;;;;;9.10;4.70;;;;;;;7.11;100.00;96415.17;273986;1267;22388;-84
2023/11/05 18:37:35;;;;;;;10.30;4.90;;;;;;;7.41;100.00;96426.39;273655;1267;22307;-84
2023/11/05 18:43:38;;;;;;;10.10;5.10;;;;;;;7.57;100.00;96436.92;273637;1267;22234;-85
2023/11/05 18:49:47;;;;;;;9.10;5.80;;;;;;;7.63;100.00;96457.91;273708;1267;22573;-86
2023/11/05 18:55:51;;;;;;;7.50;5.00;;;;;;;7.60;100.00;96469.23;272663;1267;22525;-84
2023/11/05 19:01:53;;;;;;;5.80;3.80;;;;;;;7.73;100.00;96485.12;274356;1253;22377;-85
2023/11/05 19:08:00;;;;;;;7.70;4.20;;;;;;;7.84;100.00;96497.98;273411;1267;22602;-84
2023/11/05 19:14:09;;;;;;;6.70;3.90;;;;;;;7.87;100.00;96514.64;272533;1267;22522;-84
2023/11/05 19:20:11;;;;;;;7.70;4.00;;;;;;;7.83;100.00;96525.55;273332;1267;22364;-84
2023/11/05 19:26:13;;;;;;;10.50;4.30;;;;;;;7.78;100.00;96534.96;272652;1269;22510;-84
2023/11/05 19:32:17;;;;;;;10.10;4.50;;;;;;;7.73;100.00;96542.29;272688;1272;22558;-85
2023/11/05 19:38:19;;;;;;;4.90;3.30;;;;;;;7.67;100.00;96551.88;273796;1267;23245;-86
2023/11/05 19:44:21;;;;;;;6.10;3.80;;;;;;;7.57;100.00;96566.50;273627;1269;22613;-84
2023/11/05 19:50:42;;;;;;;10.80;4.70;;;;;;;7.54;100.00;96567.25;274433;1273;22264;-84
2023/11/05 19:56:48;;;;;;;5.80;2.80;;;;;;;7.63;100.00;96569.77;273597;1267;22503;-84
2023/11/05 20:02:52;;;;;;;5.10;3.10;;;;;;;7.90;100.00;96578.98;273971;1269;22459;-83
2023/11/05 20:08:55;;;;;;;3.70;2.00;;;;;;;8.00;100.00;96590.23;273370;1267;22611;-85
2023/11/05 20:14:57;;;;;;;3.60;2.60;;;;;;;8.07;100.00;96606.30;273090;1269;22456;-84
2023/11/05 20:20:58;;;;;;;3.80;2.30;;;;;;;8.12;100.00;96620.17;272689;1269;24205;-84
2023/11/05 20:27:16;;;;;;;5.20;2.00;;;;;;;8.24;100.00;96626.45;274062;1269;22435;-85
2023/11/05 20:33:21;;;;;;;;;;;;;;;8.32;100.00;96632.52;273193;1267;22512;-85
2023/11/05 20:39:25;;;;;;;9.00;4.00;;;;;;;8.44;100.00;96635.90;274128;1267;22189;-85
2023/11/05 20:45:47;;;;;;;4.00;2.30;;;;;;;8.45;100.00;96646.40;274149;1267;22253;-84
2023/11/05 20:51:51;;;;;;;2.60;2.00;;;;;;;8.45;100.00;96662.89;273916;1270;23464;-84
2023/11/05 20:58:43;;;;;;;3.90;2.10;;;;;;;8.50;100.00;96675.13;273797;1267;22528;-86
2023/11/05 21:04:47;;;;;;;6.20;1.80;;;;;;;8.66;100.00;96680.23;271970;1266;24243;-84
2023/11/05 21:10:48;;;;;;;3.50;1.60;;;;;;;8.76;100.00;96692.52;272487;1267;22192;-84
2023/11/05 21:17:05;;;;;;;1.90;1.50;;;;;;;8.82;100.00;96696.90;271103;1267;23015;-84
2023/11/05 21:23:07;;;;;;;2.00;1.40;;;;;;;8.82;100.00;96707.03;270959;1267;94854;-84
2023/11/05 21:29:09;;;;;;;2.70;1.90;;;;;;;8.85;100.00;96717.03;273390;1267;22248;-85
2023/11/05 21:35:11;;;;;;;2.20;1.50;;;;;;;9.00;100.00;96722.36;273070;1267;23771;-84
2023/11/05 21:41:21;;;;;;;3.40;1.70;;;;;;;9.21;100.00;96729.36;272886;1267;22612;-84
2023/11/05 21:47:30;;;;;;;2.20;1.30;;;;;;;9.33;100.00;96735.30;270718;1267;23600;-84
2023/11/05 21:54:15;;;;;;;2.50;1.40;;;;;;;9.42;100.00;96743.77;271924;1267;22205;-84
2023/11/05 22:00:17;;;;;;;3.10;1.10;;;;;;;9.52;100.00;96753.95;272764;1267;23018;-86
2023/11/05 22:06:19;;;;;;;1.60;1.00;;;;;;;9.58;100.00;96770.06;272521;1267;22448;-84
2023/11/05 22:12:21;;;;;;;4.10;1.20;;;;;;;9.63;100.00;96782.36;273214;1267;22426;-84
2023/11/05 22:18:23;;;;;;;3.60;1.50;;;;;;;9.68;100.00;96790.23;273836;1267;22376;-84
2023/11/05 22:24:25;;;;;;;3.60;1.50;;;;;;;9.76;100.00;96800.59;273931;1267;22522;-84
2023/11/05 22:30:28;;;;;;;4.30;1.50;;;;;;;9.83;100.00;96804.27;272884;1267;22552;-86
2023/11/05 22:36:31;;;;;;;3.50;1.20;;;;;;;9.87;100.00;96810.98;272464;1267;22615;-84
2023/11/05 22:42:52;;;;;;;2.90;1.50;;;;;;;9.88;100.00;96820.64;272060;1267;22583;-85
2023/11/05 22:48:53;;;;;;;2.50;1.20;;;;;;;9.90;100.00;96829.97;272628;1266;22354;-87
2023/11/05 22:54:55;;;;;;;1.70;1.10;;;;;;;9.91;100.00;96834.95;273985;1262;22492;-84
2023/11/05 23:00:58;;;;;;;4.20;0.90;;;;;;;9.95;100.00;96838.45;273970;1267;22416;-84
2023/11/05 23:07:00;;;;;;;1.60;0.90;;;;;;;9.95;100.00;96844.16;273889;1267;23776;-84
2023/11/05 23:13:02;;;;;;;3.40;1.00;;;;;;;9.95;100.00;96848.92;273958;1267;22643;-83
2023/11/05 23:19:04;;;;;;;1.50;1.10;;;;;;;9.97;100.00;96863.02;270999;1267;22650;-84
2023/11/05 23:25:06;;;;;;;1.20;0.70;;;;;;;10.02;100.00;96867.98;271039;1264;25310;-84
2023/11/05 23:31:07;;;;;;;2.40;0.80;;;;;;;10.01;100.00;96880.89;270655;1267;22506;-83
2023/11/05 23:37:09;;;;;;;2.00;0.70;;;;;;;9.94;100.00;96892.13;273891;1256;22473;-84
2023/11/05 23:43:12;;;;;;;1.50;0.90;;;;;;;9.88;100.00;96895.91;274078;1267;23404;-84
2023/11/05 23:49:14;;;;;;;1.10;0.70;;;;;;;9.86;100.00;96909.61;273260;1267;23024;-83
2023/11/05 23:55:19;;;;;;;4.10;0.90;;;;;;;9.85;100.00;96923.77;270985;1260;22840;-84
